createdAt,value
2018-07-20T00:00:12.538Z,71.20
2018-07-20T00:02:41.955Z,71.50
2018-07-20T00:05:11.355Z,71.00
2018-07-20T00:07:41.076Z,71.00
2018-07-20T00:10:10.795Z,70.70
2018-07-20T00:12:40.355Z,70.60
2018-07-20T00:15:09.795Z,70.50
2018-07-20T00:20:08.215Z,70.50
2018-07-20T00:22:37.795Z,69.90
2018-07-20T00:25:07.115Z,69.80
2018-07-20T00:27:36.639Z,69.20
2018-07-20T00:30:06.335Z,69.00
2018-07-20T00:32:35.755Z,69.30
2018-07-20T00:35:05.317Z,69.60
2018-07-20T00:37:39.158Z,70.20
2018-07-20T00:40:08.996Z,70.90
2018-07-20T00:42:38.296Z,70.80
2018-07-20T00:45:08.115Z,71.20
2018-07-20T00:47:37.475Z,71.90
2018-07-20T00:50:08.276Z,72.20
2018-07-20T00:52:38.035Z,72.30
2018-07-20T00:55:07.500Z,72.20
2018-07-20T00:57:36.935Z,72.30
2018-07-20T01:02:35.037Z,72.10
2018-07-20T01:05:04.437Z,72.10
2018-07-20T01:07:33.720Z,72.60
2018-07-20T01:10:03.218Z,72.80
2018-07-20T01:15:01.437Z,74.20
2018-07-20T01:17:30.916Z,73.90
2018-07-20T01:20:00.359Z,74.40
2018-07-20T01:22:29.938Z,74.90
2018-07-20T01:25:03.336Z,75.30
2018-07-20T01:27:32.675Z,75.00
2018-07-20T01:30:01.957Z,75.10
2018-07-20T01:32:31.576Z,75.40
2018-07-20T01:35:00.996Z,75.90
2018-07-20T01:37:30.636Z,77.00
2018-07-20T01:40:00.356Z,77.70
2018-07-20T01:42:29.818Z,79.20
2018-07-20T01:44:59.235Z,80.40
2018-07-20T01:47:28.695Z,81.50
2018-07-20T01:52:27.197Z,79.90
2018-07-20T01:54:56.878Z,78.00
2018-07-20T01:57:26.216Z,77.60
2018-07-20T01:59:55.875Z,76.80
2018-07-20T02:02:25.417Z,77.00
2018-07-20T02:04:55.716Z,77.00
2018-07-20T02:07:25.159Z,77.10
2018-07-20T02:09:55.076Z,78.40
2018-07-20T02:12:24.536Z,80.30
2018-07-20T02:14:54.115Z,80.80
2018-07-20T02:17:23.877Z,79.80
2018-07-20T02:19:53.176Z,79.00
2018-07-20T02:22:27.236Z,79.60
2018-07-20T02:27:25.556Z,79.10
2018-07-20T02:29:54.916Z,79.40
2018-07-20T02:32:24.676Z,81.10
2018-07-20T02:34:54.058Z,83.90
2018-07-20T02:37:23.496Z,84.00
2018-07-20T02:39:53.042Z,82.90
2018-07-20T02:42:22.976Z,81.60
2018-07-20T02:44:52.836Z,81.70
2018-07-20T02:47:22.177Z,81.90
2018-07-20T02:49:52.197Z,82.20
2018-07-20T02:52:21.516Z,82.50
2018-07-20T02:54:51.077Z,82.70
2018-07-20T02:57:20.417Z,84.30
2018-07-20T02:59:49.719Z,85.90
2018-07-20T03:02:19.018Z,86.20
2018-07-20T03:04:48.578Z,86.60
2018-07-20T03:07:18.058Z,87.00
2018-07-20T03:09:47.538Z,87.40
2018-07-20T03:12:17.017Z,87.40
2018-07-20T03:14:46.438Z,87.00
2018-07-20T03:17:15.886Z,86.80
2018-07-20T03:19:45.958Z,86.60
2018-07-20T03:22:15.319Z,86.40
2018-07-20T03:24:49.038Z,86.20
2018-07-20T03:27:18.978Z,86.30
2018-07-20T03:29:49.079Z,86.00
2018-07-20T03:32:18.598Z,86.20
2018-07-20T03:34:47.938Z,86.40
2018-07-20T03:37:17.718Z,86.50
2018-07-20T03:39:47.298Z,87.10
2018-07-20T03:42:16.638Z,86.10
2018-07-20T03:44:46.018Z,86.10
2018-07-20T03:47:15.338Z,85.90
2018-07-20T03:49:44.740Z,85.30
2018-07-20T03:52:14.386Z,85.50
2018-07-20T03:54:43.778Z,85.70
2018-07-20T03:57:13.398Z,85.40
2018-07-20T03:59:42.798Z,85.00
2018-07-20T04:02:17.224Z,84.30
2018-07-20T04:04:46.635Z,82.90
2018-07-20T04:07:16.155Z,81.60
2018-07-20T04:09:45.995Z,80.10
2018-07-20T04:12:15.376Z,78.10
2018-07-20T04:14:44.799Z,76.40
2018-07-20T04:17:14.156Z,75.60
2018-07-20T04:19:43.475Z,74.20
2018-07-20T04:24:42.015Z,71.40
2018-07-20T04:27:11.354Z,70.80
2018-07-20T04:29:41.500Z,69.90
2018-07-20T04:34:40.354Z,68.20
2018-07-20T04:37:10.035Z,66.30
2018-07-20T04:39:39.434Z,65.60
2018-07-20T04:42:09.636Z,65.00
2018-07-20T04:44:39.014Z,64.60
2018-07-20T04:47:08.695Z,64.40
2018-07-20T04:49:42.198Z,63.90
2018-07-20T04:52:11.556Z,62.90
2018-07-20T04:54:40.975Z,63.60
2018-07-20T04:59:39.155Z,63.00
2018-07-20T05:02:09.306Z,62.10
2018-07-20T05:04:43.246Z,61.90
2018-07-20T05:07:12.726Z,62.10
2018-07-20T05:09:42.446Z,62.10
2018-07-20T05:12:11.846Z,63.80
2018-07-20T05:14:41.326Z,65.20
2018-07-20T05:17:10.709Z,65.60
2018-07-20T05:19:40.153Z,66.70
2018-07-20T05:24:39.194Z,67.10
2018-07-20T05:27:12.926Z,67.80
2018-07-20T05:29:42.346Z,68.60
2018-07-20T05:32:12.906Z,68.50
2018-07-20T05:34:42.347Z,67.40
2018-07-20T05:37:11.786Z,68.00
2018-07-20T05:39:41.205Z,68.40
2018-07-20T05:42:10.845Z,69.10
2018-07-20T05:44:40.266Z,69.10
2018-07-20T05:47:09.525Z,69.40
2018-07-20T05:49:38.785Z,70.70
2018-07-20T05:52:08.085Z,73.40
2018-07-20T05:54:37.705Z,71.00
2018-07-20T05:57:07.385Z,69.60
2018-07-20T05:59:52.345Z,68.40
2018-07-20T06:02:22.438Z,68.10
2018-07-20T06:04:52.083Z,68.40
2018-07-20T06:07:21.463Z,68.20
2018-07-20T06:09:50.762Z,69.70
2018-07-20T06:12:20.523Z,68.20
2018-07-20T06:14:50.103Z,67.90
2018-07-20T06:17:19.643Z,67.90
2018-07-20T06:19:48.669Z,67.10
2018-07-20T06:22:17.631Z,66.50
2018-07-20T06:24:46.910Z,64.90
2018-07-20T06:27:16.296Z,66.60
2018-07-20T06:29:45.596Z,65.70
2018-07-20T06:32:15.316Z,66.00
2018-07-20T06:34:44.495Z,65.10
2018-07-20T06:37:13.956Z,65.60
2018-07-20T06:39:43.117Z,66.70
2018-07-20T06:42:12.355Z,65.50
2018-07-20T06:44:41.636Z,63.50
2018-07-20T06:47:10.997Z,64.20
2018-07-20T06:49:40.375Z,62.70
2018-07-20T06:52:09.816Z,61.90
2018-07-20T06:54:39.415Z,62.10
2018-07-20T06:57:08.656Z,62.10
2018-07-20T07:02:11.987Z,60.50
2018-07-20T07:04:41.325Z,60.60
2018-07-20T07:07:15.007Z,59.90
2018-07-20T07:09:44.606Z,60.00
2018-07-20T07:12:13.905Z,60.80
2018-07-20T07:14:43.377Z,60.30
2018-07-20T07:17:12.778Z,59.70
2018-07-20T07:19:42.774Z,57.70
2018-07-20T07:22:12.150Z,57.30
2018-07-20T07:24:41.522Z,57.80
2018-07-20T07:27:10.996Z,58.60
2018-07-20T07:29:44.761Z,58.00
2018-07-20T07:32:14.297Z,56.90
2018-07-20T07:34:43.738Z,57.10
2018-07-20T07:37:12.928Z,57.30
2018-07-20T07:39:42.204Z,57.30
2018-07-20T07:42:12.993Z,56.50
2018-07-20T07:44:42.558Z,58.30
2018-07-20T07:47:12.057Z,56.10
2018-07-20T07:49:41.339Z,56.80
2018-07-20T07:52:10.758Z,55.80
2018-07-20T07:54:39.917Z,57.00
2018-07-20T07:57:09.417Z,57.80
2018-07-20T07:59:38.817Z,57.10
2018-07-20T08:02:08.065Z,57.90
2018-07-20T08:04:37.462Z,59.80
2018-07-20T08:09:35.868Z,56.00
2018-07-20T08:12:05.202Z,56.30
2018-07-20T08:14:34.522Z,56.70
2018-07-20T08:17:04.042Z,59.80
2018-07-20T08:19:33.484Z,57.10
2018-07-20T08:22:02.862Z,58.00
2018-07-20T08:24:32.343Z,59.60
2018-07-20T08:27:01.663Z,57.10
2018-07-20T08:29:31.296Z,56.40
2018-07-20T08:32:00.834Z,57.40
2018-07-20T08:34:34.234Z,58.40
2018-07-20T08:37:03.743Z,56.40
2018-07-20T08:39:33.035Z,57.30
2018-07-20T08:42:02.495Z,58.60
2018-07-20T08:44:36.143Z,58.20
2018-07-20T08:47:05.717Z,56.70
2018-07-20T08:49:35.203Z,56.60
2018-07-20T08:52:04.743Z,55.30
2018-07-20T08:54:34.055Z,55.10
2018-07-20T08:57:03.715Z,56.70
2018-07-20T09:02:02.857Z,52.60
2018-07-20T09:04:32.337Z,54.40
2018-07-20T09:07:01.697Z,54.40
2018-07-20T09:09:31.138Z,55.10
2018-07-20T09:12:00.556Z,52.20
2018-07-20T09:14:30.688Z,50.10
2018-07-20T09:19:29.556Z,53.20
2018-07-20T09:21:59.357Z,53.90
2018-07-20T09:24:29.136Z,54.60
2018-07-20T09:26:58.463Z,55.20
2018-07-20T09:29:27.936Z,52.90
2018-07-20T09:31:57.416Z,52.30
2018-07-20T09:34:27.117Z,50.80
2018-07-20T09:36:56.585Z,50.00
2018-07-20T09:39:26.336Z,52.00
2018-07-20T09:41:55.756Z,52.10
2018-07-20T09:44:25.163Z,50.70
2018-07-20T09:46:54.680Z,51.20
2018-07-20T09:49:24.156Z,52.30
2018-07-20T09:51:53.597Z,52.10
2018-07-20T09:54:23.097Z,49.60
2018-07-20T09:56:52.481Z,51.70
2018-07-20T09:59:21.928Z,52.50
2018-07-20T10:01:51.715Z,51.40
2018-07-20T10:04:21.116Z,49.80
2018-07-20T10:06:50.523Z,51.50
2018-07-20T10:09:20.017Z,49.30
2018-07-20T10:11:50.075Z,53.10
2018-07-20T10:14:19.456Z,50.80
2018-07-20T10:16:48.915Z,50.00
2018-07-20T10:19:18.275Z,48.60
2018-07-20T10:21:47.784Z,50.60
2018-07-20T10:24:17.256Z,49.70
2018-07-20T10:26:51.235Z,49.50
2018-07-20T10:29:21.018Z,50.70
2018-07-20T10:31:50.455Z,47.70
2018-07-20T10:34:21.136Z,49.10
2018-07-20T10:36:50.477Z,49.60
2018-07-20T10:39:22.356Z,46.40
2018-07-20T10:41:52.516Z,45.30
2018-07-20T10:44:22.199Z,48.90
2018-07-20T10:46:56.096Z,46.10
2018-07-20T10:49:25.897Z,47.40
2018-07-20T10:51:55.755Z,48.70
2018-07-20T10:54:26.701Z,45.30
2018-07-20T10:59:25.581Z,45.20
2018-07-20T11:01:55.101Z,46.30
2018-07-20T11:04:29.441Z,45.40
2018-07-20T11:06:59.042Z,45.00
2018-07-20T11:09:28.559Z,45.90
2018-07-20T11:11:58.121Z,42.10
2018-07-20T11:14:27.681Z,44.30
2018-07-20T11:16:57.019Z,40.90
2018-07-20T11:19:26.381Z,41.50
2018-07-20T11:21:55.818Z,40.90
2018-07-20T11:24:25.643Z,42.20
2018-07-20T11:26:54.978Z,40.90
2018-07-20T11:29:28.680Z,41.70
2018-07-20T11:31:58.218Z,40.40
2018-07-20T11:34:27.801Z,39.70
2018-07-20T11:36:57.920Z,38.90
2018-07-20T11:39:27.378Z,40.20
2018-07-20T11:41:57.194Z,42.10
2018-07-20T11:44:26.603Z,43.50
2018-07-20T11:46:56.179Z,43.00
2018-07-20T11:49:26.040Z,45.00
2018-07-20T11:51:57.202Z,41.50
2018-07-20T11:54:26.538Z,41.90
2018-07-20T11:56:56.359Z,43.30
2018-07-20T11:59:26.639Z,41.30
2018-07-20T12:01:58.168Z,41.20
2018-07-20T12:07:03.047Z,41.30
2018-07-20T12:09:32.538Z,41.80
2018-07-20T12:14:36.515Z,43.90
2018-07-20T12:19:39.540Z,42.60
2018-07-20T12:22:08.995Z,42.40
2018-07-20T12:24:38.526Z,43.00
2018-07-20T12:27:08.835Z,42.90
2018-07-20T12:29:38.256Z,44.30
2018-07-20T12:32:07.661Z,42.20
2018-07-20T12:34:37.055Z,43.10
2018-07-20T12:39:35.396Z,42.40
2018-07-20T12:42:04.957Z,42.10
2018-07-20T12:44:34.476Z,41.70
2018-07-20T12:47:07.897Z,42.90
2018-07-20T12:54:35.615Z,43.30
2018-07-20T12:57:05.176Z,44.10
2018-07-20T12:59:34.557Z,44.50
2018-07-20T13:02:03.996Z,45.10
2018-07-20T13:04:33.301Z,45.40
2018-07-20T13:07:02.896Z,46.00
2018-07-20T13:09:32.198Z,44.30
2018-07-20T13:12:01.894Z,45.70
2018-07-20T13:14:31.296Z,46.60
2018-07-20T13:17:00.578Z,47.10
2018-07-20T13:21:59.035Z,45.40
2018-07-20T13:24:28.516Z,47.80
2018-07-20T13:26:57.956Z,46.90
2018-07-20T13:29:27.516Z,45.70
2018-07-20T13:31:57.099Z,45.60
2018-07-20T13:34:26.476Z,46.00
2018-07-20T13:36:55.756Z,47.70
2018-07-20T13:39:25.118Z,45.60
2018-07-20T13:41:54.596Z,46.20
2018-07-20T13:44:24.044Z,47.10
2018-07-20T13:49:26.856Z,46.80
2018-07-20T13:51:58.199Z,47.40
2018-07-20T13:54:27.876Z,47.20
2018-07-20T13:56:57.237Z,47.20
2018-07-20T13:59:26.756Z,47.70
2018-07-20T14:01:56.435Z,48.90
2018-07-20T14:04:27.506Z,49.90
2018-07-20T14:06:57.002Z,48.90
2018-07-20T14:09:26.441Z,49.10
2018-07-20T14:14:25.971Z,50.70
2018-07-20T14:16:55.410Z,50.90
2018-07-20T14:19:24.665Z,51.70
2018-07-20T14:21:53.921Z,51.10
2018-07-20T14:24:23.301Z,50.90
2018-07-20T14:26:52.841Z,50.60
2018-07-20T14:29:22.597Z,51.60
2018-07-20T14:31:52.317Z,50.90
2018-07-20T14:34:22.057Z,50.80
2018-07-20T14:36:51.885Z,50.50
2018-07-20T14:39:22.917Z,50.50
2018-07-20T14:41:56.516Z,51.50
2018-07-20T14:44:25.877Z,51.30
2018-07-20T14:46:55.156Z,51.70
2018-07-20T14:49:24.516Z,51.10
2018-07-20T14:51:54.796Z,51.60
2018-07-20T14:54:24.355Z,52.40
2018-07-20T14:56:53.998Z,52.70
2018-07-20T14:59:23.557Z,52.10
2018-07-20T15:01:52.898Z,52.90
2018-07-20T15:04:22.318Z,53.40
2018-07-20T15:06:51.765Z,53.50
2018-07-20T15:09:21.140Z,53.70
2018-07-20T15:11:54.858Z,53.80
2018-07-20T15:14:24.478Z,53.70
2018-07-20T15:16:54.037Z,53.80
2018-07-20T15:21:52.997Z,55.00
2018-07-20T15:24:22.438Z,54.80
2018-07-20T15:26:51.877Z,54.70
2018-07-20T15:29:21.257Z,55.60
2018-07-20T15:31:50.718Z,55.60
2018-07-20T15:34:20.217Z,55.70
2018-07-20T15:36:49.638Z,56.30
2018-07-20T15:39:19.077Z,56.70
2018-07-20T15:44:17.899Z,56.40
2018-07-20T15:46:47.470Z,56.60
2018-07-20T15:49:16.700Z,57.40
2018-07-20T15:54:15.693Z,58.50
2018-07-20T15:56:45.416Z,57.00
2018-07-20T15:59:14.857Z,57.30
2018-07-20T16:01:44.426Z,57.10
2018-07-20T16:04:13.887Z,58.00
2018-07-20T16:06:43.566Z,57.50
2018-07-20T16:09:14.268Z,58.00
2018-07-20T16:11:43.869Z,58.30
2018-07-20T16:14:13.076Z,58.00
2018-07-20T16:16:42.344Z,58.50
2018-07-20T16:19:11.527Z,58.30
2018-07-20T16:21:40.846Z,58.50
2018-07-20T16:24:12.377Z,58.00
2018-07-20T16:26:42.078Z,58.10
2018-07-20T16:29:15.865Z,57.50
2018-07-20T16:34:18.722Z,57.40
2018-07-20T16:36:48.920Z,57.50
2018-07-20T16:41:47.559Z,57.00
2018-07-20T16:44:17.619Z,57.70
2018-07-20T16:46:46.997Z,57.70
2018-07-20T16:51:51.746Z,58.40
2018-07-20T16:54:21.219Z,58.10
2018-07-20T16:56:50.557Z,58.20
2018-07-20T16:59:20.016Z,58.20
2018-07-20T17:01:53.903Z,58.00
2018-07-20T17:04:23.455Z,58.00
2018-07-20T17:06:52.795Z,58.40
2018-07-20T17:09:22.096Z,58.60
2018-07-20T17:11:51.620Z,59.10
2018-07-20T17:14:21.280Z,59.60
2018-07-20T17:16:51.220Z,60.30
2018-07-20T17:19:20.717Z,60.70
2018-07-20T17:21:50.220Z,60.40
2018-07-20T17:24:20.140Z,59.90
2018-07-20T17:26:49.640Z,60.40
2018-07-20T17:29:19.081Z,60.40
2018-07-20T17:31:48.519Z,60.60
2018-07-20T17:34:17.821Z,61.30
2018-07-20T17:36:47.281Z,60.90
2018-07-20T17:39:17.200Z,60.70
2018-07-20T17:41:47.022Z,61.10
2018-07-20T17:44:16.477Z,61.30
2018-07-20T17:46:45.720Z,61.10
2018-07-20T17:49:15.297Z,61.50
2018-07-20T17:51:44.725Z,62.10
2018-07-20T17:54:14.056Z,62.50
2018-07-20T17:56:43.598Z,62.80
2018-07-20T17:59:12.958Z,64.50
2018-07-20T18:01:42.337Z,66.20
2018-07-20T18:04:12.038Z,66.80
2018-07-20T18:06:41.580Z,68.00
2018-07-20T18:09:11.724Z,68.90
2018-07-20T18:14:10.224Z,70.20
2018-07-20T18:16:39.849Z,70.60
2018-07-20T18:19:09.558Z,71.10
2018-07-20T18:21:39.201Z,72.00
2018-07-20T18:24:08.717Z,72.10
2018-07-20T18:26:38.022Z,72.30
2018-07-20T18:29:07.396Z,72.50
2018-07-20T18:31:36.903Z,72.30
2018-07-20T18:34:06.280Z,72.40
2018-07-20T18:36:36.139Z,73.10
2018-07-20T18:41:37.399Z,73.90
2018-07-20T18:44:07.458Z,74.50
2018-07-20T18:46:37.299Z,74.30
2018-07-20T18:49:07.238Z,75.20
2018-07-20T18:51:37.319Z,75.80
2018-07-20T18:54:07.237Z,76.30
2018-07-20T18:56:36.416Z,76.60
2018-07-20T18:59:05.878Z,76.50
2018-07-20T19:01:35.326Z,75.10
2018-07-20T19:04:04.806Z,72.40
2018-07-20T19:06:34.266Z,72.20
2018-07-20T19:09:04.044Z,70.90
2018-07-20T19:11:33.482Z,69.50
2018-07-20T19:14:03.243Z,68.50
2018-07-20T19:16:32.783Z,67.80
2018-07-20T19:19:02.124Z,68.00
2018-07-20T19:21:31.483Z,68.10
2018-07-20T19:24:00.933Z,67.10
2018-07-20T19:26:30.243Z,68.40
2018-07-20T19:29:00.164Z,68.10
2018-07-20T19:31:29.465Z,70.70
2018-07-20T19:33:58.964Z,70.80
2018-07-20T19:36:28.463Z,71.10
2018-07-20T19:38:58.003Z,71.10
2018-07-20T19:41:28.641Z,70.70
2018-07-20T19:43:58.119Z,69.50
2018-07-20T19:46:27.632Z,71.00
2018-07-20T19:48:57.100Z,71.70
2018-07-20T19:51:26.579Z,72.60
2018-07-20T19:53:55.819Z,73.10
2018-07-20T19:56:25.099Z,76.10
2018-07-20T19:58:54.404Z,76.90
2018-07-20T20:01:23.592Z,78.70
2018-07-20T20:03:53.004Z,80.30
2018-07-20T20:06:22.445Z,81.40
2018-07-20T20:08:52.205Z,82.00
2018-07-20T20:11:22.283Z,81.70
2018-07-20T20:13:52.106Z,82.00
2018-07-20T20:16:21.883Z,82.10
2018-07-20T20:18:51.245Z,82.30
2018-07-20T20:21:20.924Z,81.90
2018-07-20T20:23:50.764Z,81.80
2018-07-20T20:26:20.423Z,82.00
2018-07-20T20:28:49.825Z,81.50
2018-07-20T20:31:19.443Z,80.60
2018-07-20T20:33:49.204Z,80.80
2018-07-20T20:36:18.379Z,80.60
2018-07-20T20:38:47.958Z,80.40
2018-07-20T20:41:18.090Z,80.20
2018-07-20T20:43:48.986Z,81.00
2018-07-20T20:46:18.598Z,80.90
2018-07-20T20:48:48.059Z,80.40
2018-07-20T20:51:17.455Z,80.90
2018-07-20T20:53:46.882Z,81.20
2018-07-20T20:56:16.219Z,81.60
2018-07-20T20:58:49.698Z,82.60
2018-07-20T21:01:19.485Z,83.10
2018-07-20T21:03:48.957Z,83.50
2018-07-20T21:06:18.359Z,83.80
2018-07-20T21:08:47.716Z,84.10
2018-07-20T21:11:16.856Z,84.80
2018-07-20T21:13:46.327Z,85.90
2018-07-20T21:16:17.581Z,87.10
2018-07-20T21:18:46.766Z,88.50
2018-07-20T21:21:16.418Z,88.20
2018-07-20T21:26:15.018Z,83.70
2018-07-20T21:28:44.777Z,84.50
2018-07-20T21:31:14.239Z,82.90
2018-07-20T21:33:44.677Z,83.80
2018-07-20T21:36:14.441Z,85.00
2018-07-20T21:38:48.356Z,85.20
2018-07-20T21:41:17.660Z,87.10
2018-07-20T21:43:46.920Z,87.80
2018-07-20T21:46:16.340Z,88.40
2018-07-20T21:48:46.136Z,88.50
2018-07-20T21:51:15.778Z,88.20
2018-07-20T21:53:45.129Z,88.10
2018-07-20T21:56:14.581Z,88.10
2018-07-20T21:58:44.138Z,88.20
2018-07-20T22:01:13.941Z,88.40
2018-07-20T22:03:43.459Z,88.60
2018-07-20T22:06:12.740Z,89.00
2018-07-20T22:08:41.893Z,89.80
2018-07-20T22:11:21.133Z,89.70
2018-07-20T22:13:51.477Z,89.30
2018-07-20T22:16:20.604Z,89.20
2018-07-20T22:21:19.056Z,90.00
2018-07-20T22:23:48.478Z,90.40
2018-07-20T22:26:17.964Z,91.00
2018-07-20T22:28:48.040Z,91.50
2018-07-20T22:31:17.796Z,91.90
2018-07-20T22:33:47.176Z,92.40
2018-07-20T22:36:16.576Z,92.90
2018-07-20T22:38:45.976Z,93.10
2018-07-20T22:41:15.498Z,93.40
2018-07-20T22:43:45.017Z,93.60
2018-07-20T22:46:14.436Z,93.70
2018-07-20T22:48:43.818Z,93.80
2018-07-20T22:51:13.416Z,93.80
2018-07-20T22:53:42.807Z,94.00
2018-07-20T22:56:12.395Z,93.70
2018-07-20T22:58:41.676Z,93.70
2018-07-20T23:01:11.404Z,93.70
2018-07-20T23:03:40.835Z,94.00
2018-07-20T23:06:10.314Z,94.00
2018-07-20T23:08:39.637Z,94.00
2018-07-20T23:13:38.257Z,94.70
2018-07-20T23:16:07.915Z,94.90
2018-07-20T23:18:37.415Z,95.10
2018-07-20T23:21:06.791Z,95.40
2018-07-20T23:23:36.095Z,95.70
2018-07-20T23:28:34.856Z,96.40
2018-07-20T23:31:04.355Z,96.70
2018-07-20T23:36:02.595Z,96.10
2018-07-20T23:38:31.914Z,96.20
2018-07-20T23:41:01.355Z,96.70
2018-07-20T23:43:30.755Z,96.80
2018-07-20T23:46:00.215Z,96.90
2018-07-20T23:48:29.537Z,96.80
2018-07-20T23:50:58.922Z,96.80
2018-07-20T23:53:28.275Z,96.50
2018-07-20T23:55:57.594Z,96.50
2018-07-20T23:58:28.957Z,96.80
